McWilliams, Alabama
Current Conditions -  °F | °C
As of 11:56 PM on Tuesday 21 Oct 2014 (Local Time) from KPRN Reporting Station
Clear Clear  
Wind Chill: 55°   Ceiling: Unl
Heat Index: 55°   Visibility: 10mi
Dew Point: 51°   Wind: 5mph
Humidity: 86%   Direction: 20°NNE
Pressure: 30.03"   Gusts: NA
Location:  31.83°N, 87.09°W
Report Text: KPRN 220456Z AUTO 02004KT 10SM CLR 13/11 A3003 RMK AO2 SLP167 T01280106
Loading
Personal Weather Stations






























Interactive Weather Map
Tropical Storm Tracking
New forecast layout! Learn more

10-Day Weather Forecast

Advertisements
Track Severe Weather on mobile